Time;durP1;ratioP1;P1;durP2;ratioP2;P2;SDS_P1;SDS_P2;PMS_P1;PMS_P2;Temp;Humidity;BMP_temperature;BMP_pressure;BME280_temperature;BME280_humidity;BME280_pressure;Samples;Min_cycle;Max_cycle;Signal;HPM_P1;HPM_P2
2021/12/31 00:00:18;;;;;;;11.88;4.90;;;8.90;99.90;;;;;;5026090;28;20037;-76
2021/12/31 00:02:43;;;;;;;10.45;4.07;;;8.90;99.90;;;;;;5028590;28;20105;-76
2021/12/31 00:05:10;;;;;;;6.10;3.85;;;8.90;99.90;;;;;;5027490;28;20021;-77
2021/12/31 00:07:36;;;;;;;7.78;4.22;;;8.90;99.90;;;;;;5016758;28;20121;-77
2021/12/31 00:10:02;;;;;;;8.57;4.47;;;8.90;99.90;;;;;;5051816;23;20511;-71
2021/12/31 00:12:28;;;;;;;11.57;4.07;;;8.90;99.90;;;;;;5034701;28;20033;-71
2021/12/31 00:14:54;;;;;;;5.95;4.00;;;8.90;99.90;;;;;;5035267;28;20496;-71
2021/12/31 00:17:20;;;;;;;9.10;4.93;;;8.90;99.90;;;;;;5035180;28;20041;-71
2021/12/31 00:19:47;;;;;;;7.15;4.60;;;8.90;99.90;;;;;;5035136;28;20026;-71
2021/12/31 00:22:55;;;;;;;8.85;4.90;;;8.90;99.90;;;;;;5034226;28;20025;-71
2021/12/31 00:24:59;;;;;;;8.70;4.72;;;8.90;99.90;;;;;;5034534;28;20040;-71
2021/12/31 00:27:25;;;;;;;9.00;4.50;;;8.90;99.90;;;;;;5035004;28;20029;-71
2021/12/31 00:29:51;;;;;;;12.63;5.00;;;9.00;99.90;;;;;;5035030;28;20100;-71
2021/12/31 00:32:18;;;;;;;9.13;4.47;;;8.90;99.90;;;;;;5034913;28;20068;-71
2021/12/31 00:34:44;;;;;;;10.60;4.55;;;8.90;99.90;;;;;;5034340;28;20017;-71
2021/12/31 00:37:09;;;;;;;9.27;3.45;;;8.90;99.90;;;;;;5034834;28;20087;-71
2021/12/31 00:39:35;;;;;;;10.52;4.63;;;9.00;99.90;;;;;;5033502;28;20467;-71
2021/12/31 00:42:01;;;;;;;8.65;4.15;;;9.00;99.90;;;;;;5034931;28;20525;-71
2021/12/31 00:44:26;;;;;;;11.18;4.30;;;9.00;99.90;;;;;;5034733;28;20021;-72
2021/12/31 00:46:52;;;;;;;7.25;3.63;;;9.00;99.90;;;;;;5034140;28;20052;-71
2021/12/31 00:49:17;;;;;;;8.02;4.18;;;9.00;99.90;;;;;;5035723;28;20026;-72
2021/12/31 00:51:43;;;;;;;8.77;4.40;;;9.00;99.90;;;;;;5034746;28;20025;-71
2021/12/31 00:54:08;;;;;;;8.98;3.30;;;9.00;99.90;;;;;;5033795;28;20033;-71
2021/12/31 00:56:34;;;;;;;9.85;3.67;;;9.10;99.90;;;;;;5021147;28;20025;-71
2021/12/31 00:59:00;;;;;;;12.15;3.97;;;9.00;99.90;;;;;;5014692;28;20436;-71
2021/12/31 01:01:26;;;;;;;13.27;4.28;;;9.00;99.90;;;;;;5015655;28;20112;-71
2021/12/31 01:03:52;;;;;;;5.55;3.88;;;9.10;99.90;;;;;;5032262;28;20026;-71
2021/12/31 01:06:18;;;;;;;6.90;3.00;;;9.00;99.90;;;;;;5029715;28;20076;-72
2021/12/31 01:08:43;;;;;;;7.75;3.35;;;9.10;99.90;;;;;;5014797;28;20389;-71
2021/12/31 01:11:10;;;;;;;5.25;2.70;;;9.20;99.90;;;;;;5018153;28;20052;-72
2021/12/31 01:13:49;;;;;;;9.10;2.92;;;9.20;99.90;;;;;;5014725;28;20018;-72
2021/12/31 01:16:17;;;;;;;8.85;2.58;;;9.20;99.90;;;;;;5014740;28;20053;-72
2021/12/31 01:21:18;;;;;;;11.05;4.13;;;9.10;99.90;;;;;;5034199;28;20028;-72
2021/12/31 01:23:44;;;;;;;12.90;5.10;;;9.00;99.90;;;;;;5024330;28;20022;-72
2021/12/31 01:26:10;;;;;;;25.80;6.28;;;9.00;99.90;;;;;;5012996;28;20029;-72
2021/12/31 01:28:36;;;;;;;38.30;9.30;;;8.90;99.90;;;;;;5013932;28;20022;-72
2021/12/31 01:31:02;;;;;;;42.20;11.18;;;8.80;99.90;;;;;;5014203;28;20125;-72
2021/12/31 01:33:28;;;;;;;53.63;9.82;;;8.80;99.90;;;;;;5019387;28;20033;-71
2021/12/31 01:35:53;;;;;;;56.83;9.13;;;8.70;99.90;;;;;;5014330;28;20030;-71
2021/12/31 01:38:19;;;;;;;60.65;9.15;;;8.70;99.90;;;;;;5016076;28;20124;-72
2021/12/31 01:40:45;;;;;;;52.65;10.38;;;8.70;99.90;;;;;;5014306;28;20052;-72
2021/12/31 01:43:12;;;;;;;46.33;8.27;;;8.70;99.90;;;;;;5033660;28;20014;-72
2021/12/31 01:45:44;;;;;;;49.05;9.30;;;8.70;99.90;;;;;;5033461;28;20087;-72
2021/12/31 01:48:23;;;;;;;28.58;6.22;;;8.70;99.90;;;;;;5030632;28;20100;-71
2021/12/31 01:50:49;;;;;;;31.65;6.35;;;8.70;99.90;;;;;;5027302;28;20425;-71
2021/12/31 01:53:19;;;;;;;35.45;6.55;;;8.70;99.90;;;;;;5020989;28;20061;-71
2021/12/31 01:55:45;;;;;;;41.00;7.05;;;8.70;99.90;;;;;;5013534;28;20022;-71
2021/12/31 01:58:12;;;;;;;59.08;8.90;;;8.70;99.90;;;;;;5013731;28;20026;-71
2021/12/31 02:00:38;;;;;;;55.17;8.82;;;8.80;99.90;;;;;;5013719;28;20026;-72
2021/12/31 02:03:05;;;;;;;67.28;10.05;;;8.80;99.90;;;;;;5028741;28;20026;-71
2021/12/31 02:05:31;;;;;;;56.40;9.88;;;8.90;99.90;;;;;;5033343;28;20024;-71
2021/12/31 02:07:58;;;;;;;66.40;9.82;;;9.00;99.90;;;;;;5033318;28;20021;-71
2021/12/31 02:10:24;;;;;;;64.10;9.98;;;9.00;99.90;;;;;;5018719;28;20384;-71
2021/12/31 02:12:50;;;;;;;83.90;11.88;;;9.10;99.90;;;;;;5013534;28;20030;-71
2021/12/31 02:15:17;;;;;;;76.22;10.75;;;9.20;99.90;;;;;;5017745;28;20100;-71
2021/12/31 02:17:44;;;;;;;80.72;12.60;;;9.30;99.90;;;;;;5033196;28;20017;-72
2021/12/31 02:20:11;;;;;;;82.13;11.65;;;9.20;99.90;;;;;;5033251;28;20121;-71
2021/12/31 02:22:42;;;;;;;92.13;13.13;;;9.30;99.90;;;;;;5033405;28;20033;-71
2021/12/31 02:25:09;;;;;;;100.28;12.52;;;9.30;99.90;;;;;;5028202;28;20018;-72
2021/12/31 02:27:38;;;;;;;74.00;12.93;;;9.30;99.90;;;;;;5013656;28;20033;-71
2021/12/31 02:30:07;;;;;;;100.72;16.55;;;9.30;99.90;;;;;;5013287;28;20437;-72
2021/12/31 02:32:33;;;;;;;116.20;15.13;;;9.30;99.90;;;;;;5012955;28;20030;-72
2021/12/31 02:34:59;;;;;;;94.20;13.30;;;9.30;99.90;;;;;;5013640;28;20024;-72
2021/12/31 02:37:24;;;;;;;111.45;15.10;;;9.30;99.90;;;;;;5015738;28;20036;-72
2021/12/31 02:39:50;;;;;;;124.47;16.02;;;9.30;99.90;;;;;;5013293;28;20033;-72
2021/12/31 02:42:16;;;;;;;129.75;16.33;;;9.30;99.90;;;;;;5011830;28;20030;-72
2021/12/31 02:44:42;;;;;;;132.82;14.38;;;9.30;99.90;;;;;;5016295;28;20023;-72
2021/12/31 02:47:08;;;;;;;143.80;16.63;;;9.30;99.90;;;;;;5016572;28;20018;-72
2021/12/31 02:49:38;;;;;;;111.72;14.43;;;9.30;99.90;;;;;;5028185;28;20029;-72
2021/12/31 02:52:06;;;;;;;126.90;15.48;;;9.30;99.90;;;;;;5017032;28;20022;-72
2021/12/31 02:54:34;;;;;;;115.18;13.27;;;9.30;99.90;;;;;;5016359;28;20029;-71
2021/12/31 02:57:00;;;;;;;116.70;15.52;;;9.30;99.90;;;;;;5019446;28;20037;-72
2021/12/31 02:59:26;;;;;;;119.15;14.52;;;9.30;99.90;;;;;;5018697;28;20047;-72
2021/12/31 03:01:52;;;;;;;119.57;14.43;;;9.20;99.90;;;;;;5024000;28;20030;-72
2021/12/31 03:04:23;;;;;;;109.85;15.15;;;9.20;99.90;;;;;;5036494;28;20025;-71
2021/12/31 03:06:49;;;;;;;109.72;13.82;;;9.20;99.90;;;;;;5036800;28;20113;-72
2021/12/31 03:09:16;;;;;;;146.25;17.42;;;9.30;99.90;;;;;;5036544;28;20096;-72
2021/12/31 03:11:42;;;;;;;132.45;16.45;;;9.30;99.90;;;;;;5036336;28;20029;-72
2021/12/31 03:14:09;;;;;;;115.03;14.80;;;9.30;99.90;;;;;;5031816;28;20082;-72
2021/12/31 03:16:35;;;;;;;141.38;15.10;;;9.30;99.90;;;;;;5016287;28;20577;-72
2021/12/31 03:19:02;;;;;;;116.38;15.63;;;9.30;99.90;;;;;;5026309;28;20116;-72
2021/12/31 03:21:29;;;;;;;151.63;14.95;;;9.30;99.90;;;;;;5036195;28;20025;-72
2021/12/31 03:23:55;;;;;;;98.30;13.02;;;9.30;99.90;;;;;;5028829;28;20061;-72
2021/12/31 03:26:21;;;;;;;112.20;12.95;;;9.30;99.90;;;;;;5018878;28;20034;-72
2021/12/31 03:28:48;;;;;;;120.13;13.55;;;9.30;99.90;;;;;;5029451;28;20489;-72
2021/12/31 03:31:14;;;;;;;107.93;13.13;;;9.20;99.90;;;;;;5036367;28;20051;-72
2021/12/31 03:33:39;;;;;;;133.18;14.30;;;9.30;99.90;;;;;;5019603;28;20117;-72
2021/12/31 03:36:06;;;;;;;130.93;15.18;;;9.20;99.90;;;;;;5016279;28;20119;-72
2021/12/31 03:38:32;;;;;;;109.93;13.38;;;9.20;99.90;;;;;;5025543;28;20032;-72
2021/12/31 03:40:58;;;;;;;137.13;16.10;;;9.20;99.90;;;;;;5034026;28;20029;-72
2021/12/31 03:43:23;;;;;;;121.03;13.90;;;9.20;99.90;;;;;;5025323;28;20413;-72
2021/12/31 03:45:50;;;;;;;112.55;14.15;;;9.20;99.90;;;;;;5016657;28;20516;-72
2021/12/31 03:48:18;;;;;;;111.90;15.70;;;9.20;99.90;;;;;;5018348;28;20417;-72
2021/12/31 03:50:43;;;;;;;114.88;13.40;;;9.10;99.90;;;;;;5015588;28;20017;-72
2021/12/31 03:53:09;;;;;;;116.55;12.77;;;9.10;99.90;;;;;;5016799;28;20030;-72
2021/12/31 03:55:35;;;;;;;100.97;13.55;;;9.10;99.90;;;;;;5034961;28;20420;-72
2021/12/31 03:58:00;;;;;;;103.32;14.93;;;9.10;99.90;;;;;;5028423;28;20033;-72
2021/12/31 04:00:28;;;;;;;97.20;12.38;;;9.10;99.90;;;;;;5034176;28;20022;-72
2021/12/31 04:02:55;;;;;;;100.95;12.00;;;9.10;99.90;;;;;;5022326;28;20429;-72
2021/12/31 04:05:22;;;;;;;106.20;12.50;;;9.00;99.90;;;;;;5023187;28;20385;-72
2021/12/31 04:07:48;;;;;;;100.15;13.55;;;9.10;99.90;;;;;;5015703;28;20068;-72
2021/12/31 04:10:13;;;;;;;116.93;12.23;;;9.00;99.90;;;;;;5015419;28;20104;-71
2021/12/31 04:12:39;;;;;;;108.57;13.35;;;9.00;99.90;;;;;;5016191;28;20506;-71
2021/12/31 04:15:05;;;;;;;99.07;12.77;;;9.00;99.90;;;;;;5015089;28;20018;-71
2021/12/31 04:17:31;;;;;;;111.18;14.32;;;9.00;99.90;;;;;;5015736;28;20490;-71
2021/12/31 04:19:57;;;;;;;95.60;13.52;;;9.00;99.90;;;;;;5033813;28;20034;-71
2021/12/31 04:22:26;;;;;;;85.32;12.27;;;9.00;99.90;;;;;;5035142;28;20022;-71
2021/12/31 04:24:52;;;;;;;101.13;13.63;;;9.00;99.90;;;;;;5034902;28;20101;-71
2021/12/31 04:27:19;;;;;;;100.80;13.68;;;9.10;99.90;;;;;;5035127;28;20473;-71
2021/12/31 04:29:51;;;;;;;102.78;13.80;;;9.00;99.90;;;;;;5025249;28;20018;-71
2021/12/31 04:32:17;;;;;;;113.18;15.40;;;9.00;99.90;;;;;;5015247;28;20046;-71
2021/12/31 04:34:43;;;;;;;129.32;14.40;;;9.00;99.90;;;;;;5015204;28;20026;-72
2021/12/31 04:37:08;;;;;;;128.30;16.13;;;9.00;99.90;;;;;;5017335;28;20059;-72
2021/12/31 04:39:34;;;;;;;109.50;15.77;;;9.00;99.90;;;;;;5014518;28;20022;-72
2021/12/31 04:41:59;;;;;;;106.55;14.27;;;8.90;99.90;;;;;;5024531;28;20113;-72
2021/12/31 04:44:25;;;;;;;104.70;14.18;;;9.00;99.90;;;;;;5034722;28;20025;-72
2021/12/31 04:46:51;;;;;;;115.53;15.00;;;9.00;99.90;;;;;;5032933;28;20580;-72
2021/12/31 04:49:16;;;;;;;84.05;14.35;;;9.00;99.90;;;;;;5030360;28;20371;-72
2021/12/31 04:51:42;;;;;;;128.43;16.10;;;9.00;99.90;;;;;;5013492;28;20030;-71
2021/12/31 04:54:14;;;;;;;123.03;16.98;;;9.00;99.90;;;;;;5014188;28;20026;-72
2021/12/31 04:56:40;;;;;;;97.25;16.50;;;9.00;99.90;;;;;;5016931;28;20099;-72
2021/12/31 04:59:05;;;;;;;104.68;13.80;;;9.00;99.90;;;;;;5014696;28;20025;-72
2021/12/31 05:01:31;;;;;;;110.60;16.33;;;9.00;99.90;;;;;;5014252;28;20034;-72
2021/12/31 05:03:56;;;;;;;132.70;14.93;;;8.90;99.90;;;;;;5016780;28;20021;-72
2021/12/31 05:06:22;;;;;;;114.18;15.93;;;8.90;99.90;;;;;;5034309;28;20024;-72
2021/12/31 05:08:47;;;;;;;116.30;16.17;;;8.90;99.90;;;;;;5033059;28;20473;-72
2021/12/31 05:11:13;;;;;;;123.85;14.63;;;8.90;99.90;;;;;;5015432;28;20497;-72
2021/12/31 05:13:38;;;;;;;99.03;16.25;;;8.80;99.90;;;;;;5028876;28;20041;-71
2021/12/31 05:16:06;;;;;;;114.50;17.25;;;8.90;99.90;;;;;;5024693;28;20030;-71
2021/12/31 05:18:31;;;;;;;117.20;14.35;;;9.00;99.90;;;;;;5031560;28;20083;-71
2021/12/31 05:20:57;;;;;;;134.20;17.83;;;9.00;99.90;;;;;;5034030;28;20038;-72
2021/12/31 05:23:23;;;;;;;105.20;15.10;;;8.90;99.90;;;;;;5029401;28;20028;-71
2021/12/31 05:25:48;;;;;;;90.78;13.45;;;8.90;99.90;;;;;;5034548;28;20032;-71
2021/12/31 05:28:14;;;;;;;124.93;18.67;;;9.00;99.90;;;;;;5023166;28;20026;-71
2021/12/31 05:30:40;;;;;;;122.65;16.83;;;9.10;99.90;;;;;;5014090;28;20470;-72
2021/12/31 05:33:05;;;;;;;124.25;19.42;;;9.00;99.90;;;;;;5015799;28;20079;-71
2021/12/31 05:35:31;;;;;;;101.18;16.42;;;9.10;99.90;;;;;;5014088;28;20022;-72
2021/12/31 05:37:57;;;;;;;106.65;18.48;;;9.20;99.90;;;;;;5018935;28;20034;-72
2021/12/31 05:40:23;;;;;;;97.43;15.15;;;9.20;99.90;;;;;;5033607;28;20021;-72
2021/12/31 05:42:49;;;;;;;112.45;16.40;;;9.20;99.90;;;;;;5016404;28;20026;-71
2021/12/31 05:45:14;;;;;;;118.90;17.13;;;9.20;99.90;;;;;;5013427;28;20022;-72
2021/12/31 05:47:40;;;;;;;119.60;18.90;;;9.20;99.90;;;;;;5024286;28;20025;-72
2021/12/31 05:50:18;;;;;;;132.23;16.17;;;9.20;99.90;;;;;;5033831;28;20025;-72
2021/12/31 05:52:44;;;;;;;130.77;17.65;;;9.10;99.90;;;;;;5028341;28;20117;-71
2021/12/31 05:55:09;;;;;;;116.95;16.23;;;9.10;99.90;;;;;;5013802;28;20109;-72
2021/12/31 05:57:35;;;;;;;133.50;17.45;;;9.10;99.90;;;;;;5014180;28;20433;-72
2021/12/31 06:00:00;;;;;;;127.43;17.23;;;9.10;99.90;;;;;;5013650;28;20547;-72
2021/12/31 06:02:26;;;;;;;104.78;17.40;;;9.10;99.90;;;;;;5021265;28;20029;-72
2021/12/31 06:04:51;;;;;;;123.45;14.90;;;9.10;99.90;;;;;;5032820;28;20057;-72
2021/12/31 06:07:17;;;;;;;133.13;16.92;;;9.20;99.90;;;;;;5029011;28;20053;-72
2021/12/31 06:09:42;;;;;;;139.98;18.45;;;9.20;99.90;;;;;;5033087;28;20033;-72
2021/12/31 06:12:08;;;;;;;117.05;17.83;;;9.20;99.90;;;;;;5031871;28;20041;-71
2021/12/31 06:14:34;;;;;;;96.45;14.88;;;9.20;99.90;;;;;;5015844;28;20037;-71
2021/12/31 06:17:06;;;;;;;121.70;16.08;;;9.20;99.90;;;;;;5012961;28;20033;-72
2021/12/31 06:19:32;;;;;;;108.47;15.63;;;9.20;99.90;;;;;;5026164;28;20025;-72
2021/12/31 06:21:58;;;;;;;122.80;17.90;;;9.20;99.90;;;;;;5033338;28;20033;-71
2021/12/31 06:24:24;;;;;;;130.38;17.15;;;9.20;99.90;;;;;;5033097;28;20028;-72
2021/12/31 06:26:49;;;;;;;131.52;17.58;;;9.10;99.90;;;;;;5014963;28;20112;-72
2021/12/31 06:29:15;;;;;;;91.47;16.27;;;9.10;99.90;;;;;;5012107;28;20018;-72
2021/12/31 06:31:40;;;;;;;134.65;17.42;;;9.10;99.90;;;;;;5015495;28;20033;-72
2021/12/31 06:34:06;;;;;;;135.00;16.85;;;9.10;99.90;;;;;;5013311;28;20099;-73
2021/12/31 06:36:32;;;;;;;113.30;16.23;;;9.00;99.90;;;;;;5017197;28;20029;-72
2021/12/31 06:39:01;;;;;;;101.68;15.75;;;8.90;99.90;;;;;;5032506;28;20390;-72
2021/12/31 06:41:26;;;;;;;106.32;19.50;;;8.90;99.90;;;;;;5026175;28;20077;-72
2021/12/31 06:43:52;;;;;;;128.55;17.88;;;8.80;99.90;;;;;;5013266;28;20474;-72
2021/12/31 06:46:19;;;;;;;142.05;19.55;;;8.80;99.90;;;;;;5017084;28;20528;-71
2021/12/31 06:48:46;;;;;;;120.80;16.95;;;8.80;99.90;;;;;;5032911;28;20508;-72
2021/12/31 06:51:11;;;;;;;157.00;18.25;;;8.80;99.90;;;;;;5030780;28;20034;-72
2021/12/31 06:53:37;;;;;;;111.10;16.63;;;8.80;99.90;;;;;;5013099;28;20084;-72
2021/12/31 06:56:03;;;;;;;127.55;18.35;;;8.80;99.90;;;;;;5015387;28;20022;-72
2021/12/31 06:58:28;;;;;;;141.43;18.15;;;8.80;99.90;;;;;;5013163;28;20037;-72
2021/12/31 07:00:54;;;;;;;142.43;19.08;;;8.80;99.90;;;;;;5014134;28;20030;-72
2021/12/31 07:03:19;;;;;;;111.75;18.00;;;8.80;99.90;;;;;;5032204;28;20374;-72
2021/12/31 07:05:45;;;;;;;115.57;17.63;;;8.80;99.90;;;;;;5031498;28;20020;-72
2021/12/31 07:08:11;;;;;;;124.97;18.80;;;8.90;99.90;;;;;;5028530;28;20054;-72
2021/12/31 07:10:37;;;;;;;119.35;16.90;;;8.90;99.90;;;;;;5025484;28;20034;-72
2021/12/31 07:13:10;;;;;;;155.48;18.65;;;8.90;99.90;;;;;;5012972;28;20021;-72
2021/12/31 07:15:41;;;;;;;104.95;14.85;;;8.90;99.90;;;;;;5013041;28;20026;-72
2021/12/31 07:18:07;;;;;;;113.72;16.20;;;8.90;99.90;;;;;;5025217;28;20034;-72
2021/12/31 07:20:33;;;;;;;107.05;16.05;;;8.90;99.90;;;;;;5032259;28;20431;-72
2021/12/31 07:23:10;;;;;;;109.13;13.60;;;8.90;99.90;;;;;;5032857;28;20021;-72
2021/12/31 07:25:38;;;;;;;98.22;16.70;;;8.90;99.90;;;;;;5032601;28;20021;-72
2021/12/31 07:28:04;;;;;;;116.78;18.88;;;8.90;99.90;;;;;;5028890;28;20022;-72
2021/12/31 07:30:30;;;;;;;125.15;15.70;;;8.90;99.90;;;;;;5013005;28;20481;-72
2021/12/31 07:32:55;;;;;;;112.22;15.32;;;8.90;99.90;;;;;;5018522;28;20108;-72
2021/12/31 07:35:22;;;;;;;99.25;14.90;;;8.90;99.90;;;;;;5016375;28;20022;-72
2021/12/31 07:37:47;;;;;;;100.60;13.98;;;8.90;99.90;;;;;;5018022;28;20068;-72
2021/12/31 07:40:13;;;;;;;106.10;14.88;;;9.00;99.90;;;;;;5016287;28;20030;-72
2021/12/31 07:42:39;;;;;;;113.70;15.18;;;8.90;99.90;;;;;;5032835;28;20178;-72
2021/12/31 07:45:06;;;;;;;102.30;13.05;;;9.00;99.90;;;;;;5035911;28;20025;-72
2021/12/31 07:47:32;;;;;;;98.10;14.48;;;9.00;99.90;;;;;;5029087;28;20033;-72
2021/12/31 07:49:57;;;;;;;99.65;15.30;;;8.90;99.90;;;;;;5035343;28;20385;-72
2021/12/31 07:52:23;;;;;;;103.43;15.10;;;8.90;99.90;;;;;;5035832;28;20036;-72
2021/12/31 07:54:48;;;;;;;113.72;15.70;;;9.00;99.90;;;;;;5035705;28;20056;-72
2021/12/31 07:57:14;;;;;;;98.68;15.15;;;8.90;99.90;;;;;;5019250;28;20482;-72
2021/12/31 07:59:40;;;;;;;114.15;16.17;;;9.00;99.90;;;;;;5015638;28;20113;-71
2021/12/31 08:02:05;;;;;;;98.78;13.90;;;9.00;99.90;;;;;;5015769;28;20413;-72
2021/12/31 08:04:31;;;;;;;133.45;17.40;;;9.00;99.90;;;;;;5016060;28;20018;-72
2021/12/31 08:06:57;;;;;;;103.95;14.60;;;9.00;99.90;;;;;;5030995;28;20026;-72
2021/12/31 08:09:22;;;;;;;90.28;14.10;;;9.00;99.90;;;;;;5015260;28;20022;-72
2021/12/31 08:11:48;;;;;;;121.15;18.88;;;9.00;99.90;;;;;;5015474;28;20049;-72
2021/12/31 08:14:13;;;;;;;114.95;14.18;;;9.00;99.90;;;;;;5015752;28;20029;-72
2021/12/31 08:16:39;;;;;;;117.43;16.42;;;9.00;99.90;;;;;;5015549;28;20034;-72
2021/12/31 08:19:06;;;;;;;103.97;14.93;;;9.00;99.90;;;;;;5022083;28;20041;-72
2021/12/31 08:21:32;;;;;;;115.18;16.17;;;9.00;99.90;;;;;;5035152;28;20029;-72
2021/12/31 08:23:57;;;;;;;108.60;14.63;;;9.00;99.90;;;;;;5031490;28;20026;-72
2021/12/31 08:26:23;;;;;;;120.20;15.23;;;9.00;99.90;;;;;;5028124;28;20025;-72
2021/12/31 08:28:49;;;;;;;121.78;16.77;;;9.00;99.90;;;;;;5014763;28;20494;-72
2021/12/31 08:31:14;;;;;;;99.30;14.73;;;9.10;99.90;;;;;;5015376;28;20022;-72
2021/12/31 08:33:40;;;;;;;109.65;17.63;;;9.00;99.90;;;;;;5015762;28;20037;-72
2021/12/31 08:36:07;;;;;;;114.78;17.85;;;9.10;99.90;;;;;;5015235;28;20018;-72
2021/12/31 08:38:33;;;;;;;115.43;16.65;;;9.00;99.90;;;;;;5015137;28;20052;-72
2021/12/31 08:41:00;;;;;;;106.63;15.60;;;9.10;99.90;;;;;;5019601;28;20065;-72
2021/12/31 08:43:26;;;;;;;115.38;16.63;;;9.10;99.90;;;;;;5033828;28;20424;-72
2021/12/31 08:45:52;;;;;;;105.15;15.20;;;9.10;99.90;;;;;;5031675;28;20014;-72
2021/12/31 08:48:17;;;;;;;119.43;16.95;;;9.10;99.90;;;;;;5013667;28;20040;-72
2021/12/31 08:50:43;;;;;;;113.93;15.38;;;9.10;99.90;;;;;;5014295;28;20473;-72
2021/12/31 08:53:09;;;;;;;104.95;13.85;;;9.10;99.90;;;;;;5033209;28;20044;-72
2021/12/31 08:55:34;;;;;;;135.02;16.23;;;9.10;99.90;;;;;;5031513;28;20095;-71
2021/12/31 08:58:00;;;;;;;121.88;15.77;;;9.00;99.90;;;;;;5015121;28;20092;-72
2021/12/31 09:00:26;;;;;;;110.57;12.60;;;9.00;99.90;;;;;;5014365;28;20535;-71
2021/12/31 09:02:51;;;;;;;93.00;14.07;;;9.00;99.90;;;;;;5030623;28;20036;-72
2021/12/31 09:05:18;;;;;;;109.07;16.02;;;9.00;99.90;;;;;;5034438;28;20021;-71
2021/12/31 09:07:44;;;;;;;110.13;14.45;;;9.00;99.90;;;;;;5034629;28;20044;-71
2021/12/31 09:10:10;;;;;;;129.60;16.35;;;9.00;99.90;;;;;;5034136;28;20504;-71
2021/12/31 09:12:36;;;;;;;119.35;15.80;;;9.00;99.90;;;;;;5026794;28;20026;-71
2021/12/31 09:15:02;;;;;;;89.65;14.18;;;9.00;99.90;;;;;;5014484;28;20056;-71
2021/12/31 09:17:28;;;;;;;89.45;13.88;;;9.00;99.90;;;;;;5014415;28;20040;-71
2021/12/31 09:19:53;;;;;;;125.30;17.50;;;9.00;99.90;;;;;;5014517;28;20030;-71
2021/12/31 09:22:19;;;;;;;105.75;13.70;;;9.10;99.90;;;;;;5014325;28;20037;-71
2021/12/31 09:24:45;;;;;;;110.55;16.98;;;9.10;99.90;;;;;;5015407;28;20021;-71
2021/12/31 09:27:11;;;;;;;119.35;14.60;;;9.10;99.90;;;;;;5015242;28;20500;-71
2021/12/31 09:29:36;;;;;;;105.53;16.20;;;9.10;99.90;;;;;;5033872;28;20029;-71
2021/12/31 09:32:02;;;;;;;118.57;17.17;;;9.10;99.90;;;;;;5033910;28;20029;-71
2021/12/31 09:34:28;;;;;;;131.23;17.05;;;9.20;99.90;;;;;;5016067;28;20105;-71
2021/12/31 09:36:53;;;;;;;72.55;12.73;;;9.10;99.90;;;;;;5014048;28;20113;-71
2021/12/31 09:39:19;;;;;;;98.82;14.38;;;9.10;99.90;;;;;;5025195;28;20049;-71
2021/12/31 09:41:45;;;;;;;93.25;14.35;;;9.20;99.90;;;;;;5023191;28;20025;-71
2021/12/31 09:44:14;;;;;;;87.93;12.63;;;9.10;99.90;;;;;;5029580;28;20047;-71
2021/12/31 09:46:40;;;;;;;98.55;14.50;;;9.10;99.90;;;;;;5033677;28;20017;-72
2021/12/31 09:49:05;;;;;;;95.45;14.60;;;9.10;99.90;;;;;;5025974;28;20044;-71
2021/12/31 09:51:32;;;;;;;102.32;13.13;;;9.20;99.90;;;;;;5013328;28;20038;-71
2021/12/31 09:53:59;;;;;;;96.40;13.25;;;9.20;99.90;;;;;;5016048;28;20028;-70
2021/12/31 09:56:26;;;;;;;113.85;15.63;;;9.20;99.90;;;;;;5012503;28;20057;-71
2021/12/31 09:58:52;;;;;;;89.78;13.93;;;9.10;99.90;;;;;;5028851;28;20108;-70
2021/12/31 10:01:17;;;;;;;106.13;15.85;;;9.20;99.90;;;;;;5032318;28;20033;-70
2021/12/31 10:03:56;;;;;;;84.20;13.85;;;9.20;99.90;;;;;;5016072;28;20018;-71
2021/12/31 10:06:24;;;;;;;119.00;16.40;;;9.20;99.90;;;;;;5013993;28;20025;-71
2021/12/31 10:08:50;;;;;;;103.32;15.90;;;9.20;99.90;;;;;;5013317;28;20021;-71
2021/12/31 10:11:21;;;;;;;93.63;14.45;;;9.10;99.90;;;;;;5023234;28;20096;-72
2021/12/31 10:13:55;;;;;;;130.48;18.60;;;9.20;99.90;;;;;;5015184;28;20041;-71
2021/12/31 10:16:32;;;;;;;89.80;13.43;;;9.20;99.90;;;;;;5013509;28;20092;-71
2021/12/31 10:19:15;;;;;;;96.95;13.18;;;9.20;99.90;;;;;;5015792;28;20036;-71
2021/12/31 10:21:43;;;;;;;91.80;13.73;;;9.10;99.90;;;;;;5013395;28;20040;-71
2021/12/31 10:24:32;;;;;;;80.35;14.25;;;9.10;99.90;;;;;;5022411;28;20692;-72
2021/12/31 10:27:02;;;;;;;101.07;14.18;;;9.10;99.90;;;;;;5032604;28;20032;-71
2021/12/31 10:29:28;;;;;;;100.55;17.50;;;9.10;99.90;;;;;;5024829;28;20021;-71
2021/12/31 10:31:54;;;;;;;118.07;16.23;;;9.10;99.90;;;;;;5013395;28;20034;-71
2021/12/31 10:34:33;;;;;;;115.88;16.17;;;9.10;99.90;;;;;;5025505;28;20029;-71
2021/12/31 10:37:02;;;;;;;113.10;14.85;;;9.00;99.90;;;;;;5032722;28;20544;-71
2021/12/31 10:39:37;;;;;;;83.88;13.55;;;9.00;99.90;;;;;;5024203;28;20022;-71
2021/12/31 10:42:06;;;;;;;118.03;15.05;;;9.00;99.90;;;;;;5022477;28;20071;-71
2021/12/31 10:44:52;;;;;;;98.40;13.85;;;9.00;99.90;;;;;;5033270;28;20477;-72
2021/12/31 10:47:29;;;;;;;91.80;13.15;;;9.10;99.90;;;;;;5020089;28;20113;-71
2021/12/31 10:50:00;;;;;;;93.25;13.05;;;9.10;99.90;;;;;;5029651;28;20028;-70
2021/12/31 10:52:38;;;;;;;88.30;14.13;;;9.00;99.90;;;;;;5033175;28;20495;-70
2021/12/31 10:55:14;;;;;;;86.32;13.52;;;9.00;99.90;;;;;;5030945;28;20037;-71
2021/12/31 10:57:40;;;;;;;76.30;12.32;;;9.10;99.90;;;;;;5033161;28;20037;-71
2021/12/31 11:00:07;;;;;;;91.45;13.52;;;9.00;99.90;;;;;;5022095;28;20026;-71
2021/12/31 11:02:34;;;;;;;94.72;13.20;;;9.10;99.90;;;;;;5012521;28;20032;-71
2021/12/31 11:05:00;;;;;;;99.70;14.50;;;9.10;99.90;;;;;;5013339;28;20034;-71
2021/12/31 11:07:28;;;;;;;88.93;14.60;;;9.10;99.90;;;;;;5036295;28;20021;-71
2021/12/31 11:09:58;;;;;;;101.35;17.45;;;9.10;99.90;;;;;;5036426;28;20112;-71
2021/12/31 11:12:26;;;;;;;89.18;15.00;;;9.10;99.90;;;;;;5018079;28;20026;-71
2021/12/31 11:14:52;;;;;;;91.57;15.25;;;9.10;99.90;;;;;;5016793;28;20370;-71
2021/12/31 11:17:17;;;;;;;97.43;15.48;;;9.20;99.90;;;;;;5030100;28;20022;-71
2021/12/31 11:19:45;;;;;;;120.10;15.63;;;9.20;99.90;;;;;;5036671;28;20041;-71
2021/12/31 11:22:12;;;;;;;103.00;17.65;;;9.10;99.90;;;;;;5030663;28;20029;-71
2021/12/31 11:24:38;;;;;;;111.05;17.10;;;9.20;99.90;;;;;;5016507;28;20064;-71
2021/12/31 11:27:26;;;;;;;120.47;18.20;;;9.20;99.90;;;;;;5019101;28;20037;-72
2021/12/31 11:29:52;;;;;;;123.75;16.85;;;9.20;99.90;;;;;;5016650;28;20033;-72
2021/12/31 11:32:19;;;;;;;121.38;16.30;;;9.20;99.90;;;;;;5031506;28;20053;-72
2021/12/31 11:35:04;;;;;;;125.93;15.95;;;9.20;99.90;;;;;;5035789;28;20033;-72
2021/12/31 11:37:45;;;;;;;113.72;17.67;;;9.30;99.90;;;;;;5035883;28;20040;-71
2021/12/31 11:40:50;;;;;;;125.22;17.55;;;9.30;99.90;;;;;;5032553;28;20068;-71
2021/12/31 11:43:19;;;;;;;;;;;9.30;99.90;;;;;;5035734;28;20505;-72
2021/12/31 11:51:27;;;;;;;128.43;16.98;;;9.30;99.90;;;;;;5016981;28;20033;-72
2021/12/31 11:53:55;;;;;;;111.88;16.02;;;9.30;99.90;;;;;;5016057;28;20037;-72
2021/12/31 11:59:08;;;;;;;130.70;17.10;;;9.40;99.90;;;;;;5036252;28;20030;-72
2021/12/31 12:01:37;;;;;;;120.53;18.25;;;9.40;99.90;;;;;;5034118;28;20417;-71
2021/12/31 12:04:28;;;;;;;127.22;21.02;;;9.50;99.90;;;;;;5033841;28;20017;-72
2021/12/31 12:06:54;;;;;;;128.32;17.58;;;9.50;99.90;;;;;;5035591;28;20022;-72
2021/12/31 12:09:21;;;;;;;138.63;18.80;;;9.50;99.90;;;;;;5017283;28;20033;-72
2021/12/31 12:12:00;;;;;;;140.02;17.17;;;9.50;99.90;;;;;;5052704;23;20402;-70
2021/12/31 12:14:48;;;;;;;128.50;17.10;;;9.50;99.90;;;;;;5035623;28;20036;-70
2021/12/31 12:17:39;;;;;;;130.32;18.25;;;9.60;99.90;;;;;;5030766;28;20025;-70
2021/12/31 12:20:07;;;;;;;87.25;15.30;;;9.60;99.90;;;;;;5035782;28;20025;-70
2021/12/31 12:22:37;;;;;;;119.75;15.55;;;9.60;99.90;;;;;;5031164;28;20061;-70
2021/12/31 12:25:17;;;;;;;103.78;16.20;;;9.60;99.90;;;;;;5015396;28;20026;-70
2021/12/31 12:27:46;;;;;;;110.63;16.80;;;9.60;99.90;;;;;;4997215;28;20026;-70
2021/12/31 12:30:14;;;;;;;112.57;15.93;;;9.60;99.90;;;;;;5015237;28;20026;-70
2021/12/31 12:35:22;;;;;;;120.20;18.30;;;9.50;99.90;;;;;;5035317;28;20022;-70
2021/12/31 12:38:10;;;;;;;112.25;15.57;;;9.60;99.90;;;;;;5031365;28;20101;-70
2021/12/31 12:40:45;;;;;;;121.72;17.08;;;9.60;99.90;;;;;;5033036;28;20017;-69
2021/12/31 12:43:13;;;;;;;113.93;17.48;;;9.50;99.90;;;;;;5030559;28;20017;-70
2021/12/31 12:45:44;;;;;;;114.85;17.25;;;9.60;99.90;;;;;;5035102;28;20091;-70
2021/12/31 12:48:10;;;;;;;124.32;16.58;;;9.60;99.90;;;;;;5021265;28;20056;-70